createdAt,value
2022-12-29T00:01:40.617Z,2.97
2022-12-29T00:04:12.843Z,3.10
2022-12-29T00:06:41.695Z,3.07
2022-12-29T00:09:08.065Z,2.73
2022-12-29T00:11:34.692Z,3.37
2022-12-29T00:14:25.655Z,3.27
2022-12-29T00:16:52.645Z,4.50
2022-12-29T00:19:38.375Z,2.83
2022-12-29T00:22:23.378Z,3.83
2022-12-29T00:25:08.470Z,5.07
2022-12-29T00:27:53.516Z,3.33
2022-12-29T00:30:40.743Z,2.53
2022-12-29T00:33:39.969Z,2.00
2022-12-29T00:36:16.375Z,2.50
2022-12-29T00:39:07.130Z,2.43
2022-12-29T00:41:51.946Z,1.63
2022-12-29T00:44:18.729Z,1.90
2022-12-29T00:46:45.403Z,1.80
2022-12-29T00:49:32.344Z,2.07
2022-12-29T00:52:00.188Z,2.57
2022-12-29T00:54:30.484Z,1.63
2022-12-29T00:56:57.313Z,1.57
2022-12-29T00:59:25.145Z,1.40
2022-12-29T01:01:53.296Z,1.37
2022-12-29T01:04:22.129Z,1.50
2022-12-29T01:06:49.099Z,1.80
2022-12-29T01:09:36.034Z,2.13
2022-12-29T01:12:03.820Z,1.37
2022-12-29T01:14:30.566Z,1.27
2022-12-29T01:16:57.573Z,1.73
2022-12-29T01:19:24.515Z,1.73
2022-12-29T01:21:51.658Z,2.17
2022-12-29T01:24:21.186Z,1.80
2022-12-29T01:26:49.431Z,3.80
2022-12-29T01:29:17.362Z,1.47
2022-12-29T01:31:46.466Z,1.20
2022-12-29T01:34:14.055Z,2.40
2022-12-29T01:36:40.625Z,1.47
2022-12-29T01:39:07.063Z,1.43
2022-12-29T01:41:34.087Z,1.40
2022-12-29T01:44:02.601Z,1.40
2022-12-29T01:46:48.751Z,4.00
2022-12-29T01:49:20.557Z,1.30
2022-12-29T01:51:53.016Z,3.20
2022-12-29T01:54:40.515Z,2.03
2022-12-29T01:57:13.382Z,3.43
2022-12-29T01:59:48.233Z,3.13
2022-12-29T02:02:14.879Z,1.37
2022-12-29T02:04:46.708Z,1.53
2022-12-29T02:07:23.711Z,1.20
2022-12-29T02:09:52.238Z,1.23
2022-12-29T02:12:21.778Z,1.33
2022-12-29T02:14:52.662Z,1.20
2022-12-29T02:17:54.418Z,1.67
2022-12-29T02:20:33.070Z,1.13
2022-12-29T02:23:25.432Z,1.10
2022-12-29T02:26:16.575Z,1.17
2022-12-29T02:29:33.962Z,1.20
2022-12-29T02:32:33.796Z,1.53
2022-12-29T02:35:36.132Z,1.10
2022-12-29T02:38:19.058Z,1.63
2022-12-29T02:41:08.492Z,0.90
2022-12-29T02:43:47.139Z,1.20
2022-12-29T02:46:22.092Z,1.87
2022-12-29T02:49:23.568Z,1.10
2022-12-29T02:52:03.891Z,1.30
2022-12-29T02:54:43.357Z,2.23
2022-12-29T02:57:22.079Z,1.20
2022-12-29T02:59:57.695Z,2.60
2022-12-29T03:02:46.121Z,1.43
2022-12-29T03:05:29.903Z,1.40
2022-12-29T03:08:11.654Z,1.50
2022-12-29T03:11:03.065Z,1.23
2022-12-29T03:14:12.326Z,2.40
2022-12-29T03:16:53.209Z,2.60
2022-12-29T03:19:37.019Z,1.67
2022-12-29T03:22:27.811Z,1.50
2022-12-29T03:25:11.193Z,2.07
2022-12-29T03:27:43.160Z,1.77
2022-12-29T03:30:10.613Z,1.23
2022-12-29T03:32:43.569Z,1.90
2022-12-29T03:35:16.491Z,2.10
2022-12-29T03:37:51.013Z,1.40
2022-12-29T03:40:18.897Z,2.13
2022-12-29T03:42:47.639Z,1.57
2022-12-29T03:45:14.607Z,2.53
2022-12-29T03:47:42.230Z,1.80
2022-12-29T03:50:09.561Z,1.57
2022-12-29T03:52:39.947Z,1.63
2022-12-29T03:55:07.246Z,1.47
2022-12-29T03:57:33.938Z,2.17
2022-12-29T04:00:06.874Z,1.93
2022-12-29T04:02:42.207Z,2.07
2022-12-29T04:05:12.059Z,3.70
2022-12-29T04:07:38.536Z,2.07
2022-12-29T04:10:05.766Z,2.40
2022-12-29T04:12:34.398Z,2.30
2022-12-29T04:15:02.626Z,1.57
2022-12-29T04:17:29.397Z,2.17
2022-12-29T04:20:15.930Z,2.23
2022-12-29T04:22:43.375Z,1.47
2022-12-29T04:25:10.117Z,0.77
2022-12-29T04:27:36.996Z,1.50
2022-12-29T04:30:22.280Z,1.23
2022-12-29T04:33:08.996Z,1.00
2022-12-29T04:35:35.638Z,0.70
2022-12-29T04:38:03.807Z,1.70
2022-12-29T04:40:30.631Z,2.00
2022-12-29T04:42:57.101Z,1.07
2022-12-29T04:45:24.820Z,1.13
2022-12-29T04:47:57.709Z,2.13
2022-12-29T04:50:59.310Z,1.13
2022-12-29T04:53:28.651Z,2.03
2022-12-29T04:55:55.256Z,1.87
2022-12-29T04:58:23.290Z,1.07
2022-12-29T05:00:52.864Z,2.27
2022-12-29T05:03:22.623Z,2.57
2022-12-29T05:05:49.643Z,2.47
2022-12-29T05:08:18.989Z,1.53
2022-12-29T05:10:47.563Z,1.67
2022-12-29T05:13:15.627Z,0.77
2022-12-29T05:15:55.672Z,0.80
2022-12-29T05:18:23.730Z,1.20
2022-12-29T05:20:50.159Z,1.33
2022-12-29T05:23:18.315Z,1.70
2022-12-29T05:25:49.719Z,1.80
2022-12-29T05:28:18.994Z,0.80
2022-12-29T05:30:59.365Z,1.00
2022-12-29T05:33:25.894Z,0.97
2022-12-29T05:35:52.475Z,1.87
2022-12-29T05:38:20.107Z,0.70
2022-12-29T05:40:46.745Z,0.80
2022-12-29T05:43:42.440Z,1.80
2022-12-29T05:46:27.490Z,1.87
2022-12-29T05:49:09.152Z,2.87
2022-12-29T05:51:52.578Z,1.80
2022-12-29T05:54:18.999Z,3.00
2022-12-29T05:56:45.989Z,0.63
2022-12-29T05:59:12.685Z,1.70
2022-12-29T06:01:40.130Z,1.83
2022-12-29T06:04:07.770Z,2.13
2022-12-29T06:06:34.339Z,1.23
2022-12-29T06:09:00.881Z,1.47
2022-12-29T06:11:29.250Z,2.77
2022-12-29T06:13:58.612Z,2.00
2022-12-29T06:16:25.053Z,3.43
2022-12-29T06:18:55.036Z,2.60
2022-12-29T06:21:22.307Z,2.70
2022-12-29T06:23:48.768Z,1.20
2022-12-29T06:26:15.216Z,1.57
2022-12-29T06:28:41.772Z,3.47
2022-12-29T06:31:11.731Z,1.30
2022-12-29T06:33:39.227Z,1.87
2022-12-29T06:36:06.232Z,1.13
2022-12-29T06:38:32.688Z,1.40
2022-12-29T06:40:59.568Z,1.27
2022-12-29T06:43:36.770Z,2.07
2022-12-29T06:46:19.400Z,2.97
2022-12-29T06:48:45.870Z,1.30
2022-12-29T06:51:12.433Z,1.10
2022-12-29T06:53:39.199Z,1.27
2022-12-29T06:56:05.807Z,4.13
2022-12-29T06:58:32.211Z,2.50
2022-12-29T07:00:58.912Z,2.63
2022-12-29T07:03:25.386Z,1.37
2022-12-29T07:05:51.811Z,1.90
2022-12-29T07:08:18.519Z,0.97
2022-12-29T07:10:45.074Z,3.63
2022-12-29T07:13:11.527Z,3.37
2022-12-29T07:15:38.400Z,1.73
2022-12-29T07:18:05.506Z,1.37
2022-12-29T07:20:32.514Z,1.83
2022-12-29T07:22:59.479Z,2.53
2022-12-29T07:25:25.907Z,3.40
2022-12-29T07:27:52.542Z,2.03
2022-12-29T07:30:19.008Z,3.37
2022-12-29T07:32:45.659Z,0.87
2022-12-29T07:35:12.211Z,0.83
2022-12-29T07:37:38.609Z,3.03
2022-12-29T07:40:05.507Z,1.97
2022-12-29T07:42:32.591Z,2.23
2022-12-29T07:44:59.905Z,4.00
2022-12-29T07:47:31.017Z,1.60
2022-12-29T07:49:57.437Z,2.10
2022-12-29T07:52:23.863Z,2.03
2022-12-29T07:54:50.280Z,3.43
2022-12-29T07:57:16.889Z,1.77
2022-12-29T07:59:43.471Z,0.87
2022-12-29T08:02:12.551Z,2.13
2022-12-29T08:04:39.113Z,1.07
2022-12-29T08:07:05.540Z,2.03
2022-12-29T08:09:31.926Z,1.33
2022-12-29T08:11:58.337Z,1.13
2022-12-29T08:14:24.768Z,1.47
2022-12-29T08:16:51.212Z,1.83
2022-12-29T08:19:17.641Z,2.17
2022-12-29T08:21:44.340Z,1.30
2022-12-29T08:24:10.849Z,2.60
2022-12-29T08:26:37.301Z,2.47
2022-12-29T08:29:03.996Z,3.13
2022-12-29T08:31:30.807Z,2.43
2022-12-29T08:33:57.417Z,3.17
2022-12-29T08:36:23.882Z,3.60
2022-12-29T08:38:50.454Z,2.23
2022-12-29T08:41:17.032Z,3.40
2022-12-29T08:43:47.565Z,5.97
2022-12-29T08:46:14.527Z,3.77
2022-12-29T08:48:41.112Z,2.60
2022-12-29T08:51:08.721Z,4.33
2022-12-29T08:53:35.288Z,3.43
2022-12-29T08:56:05.369Z,3.60
2022-12-29T08:58:41.504Z,5.10
2022-12-29T09:01:08.199Z,3.83
2022-12-29T09:06:21.943Z,5.27
2022-12-29T09:08:48.379Z,5.23
2022-12-29T09:11:21.914Z,3.60
2022-12-29T09:13:49.044Z,4.20
2022-12-29T09:16:17.133Z,5.67
2022-12-29T09:18:44.969Z,5.97
2022-12-29T09:21:12.335Z,3.50
2022-12-29T09:23:40.091Z,4.40
2022-12-29T09:26:08.833Z,3.23
2022-12-29T09:28:35.753Z,3.83
2022-12-29T09:31:02.711Z,4.53
2022-12-29T09:33:29.430Z,3.80
2022-12-29T09:35:58.094Z,3.07
2022-12-29T09:38:25.963Z,4.20
2022-12-29T09:41:00.152Z,5.30
2022-12-29T09:43:57.176Z,5.30
2022-12-29T09:46:29.795Z,4.60
2022-12-29T09:49:23.841Z,3.63
2022-12-29T09:51:54.865Z,6.53
2022-12-29T09:54:31.867Z,4.13
2022-12-29T09:56:58.454Z,4.23
2022-12-29T09:59:46.051Z,5.37
2022-12-29T10:02:43.388Z,1.70
2022-12-29T10:05:47.933Z,3.43
2022-12-29T10:08:38.607Z,3.63
2022-12-29T10:11:04.983Z,3.00
2022-12-29T10:13:45.037Z,3.57
2022-12-29T10:16:40.137Z,5.17
2022-12-29T10:19:32.778Z,4.17
2022-12-29T10:22:10.348Z,4.07
2022-12-29T10:24:39.882Z,5.07
2022-12-29T10:27:12.824Z,2.93
2022-12-29T10:29:46.743Z,3.03
2022-12-29T10:32:33.030Z,3.87
2022-12-29T10:35:10.992Z,5.90
2022-12-29T10:37:53.218Z,5.77
2022-12-29T10:40:39.166Z,6.93
2022-12-29T10:43:21.724Z,4.27
2022-12-29T10:45:48.980Z,5.23
2022-12-29T10:48:30.177Z,3.67
2022-12-29T10:51:02.239Z,4.47
2022-12-29T10:53:39.804Z,3.47
2022-12-29T10:56:16.228Z,4.87
2022-12-29T10:58:49.549Z,3.23
2022-12-29T11:01:18.135Z,4.73
2022-12-29T11:04:21.365Z,4.67
2022-12-29T11:06:47.942Z,3.50
2022-12-29T11:09:36.619Z,3.90
2022-12-29T11:12:29.846Z,6.87
2022-12-29T11:15:08.581Z,4.07
2022-12-29T11:17:50.899Z,4.90
2022-12-29T11:20:35.759Z,4.03
2022-12-29T11:23:04.282Z,5.63
2022-12-29T11:25:30.988Z,4.67
2022-12-29T11:28:05.049Z,5.87
2022-12-29T11:30:32.953Z,4.17
2022-12-29T11:33:04.362Z,4.53
2022-12-29T11:35:51.341Z,3.63
2022-12-29T11:38:31.947Z,5.67
2022-12-29T11:40:58.360Z,3.93
2022-12-29T11:43:31.073Z,6.40
2022-12-29T11:45:57.722Z,10.60
2022-12-29T11:48:28.639Z,5.23
2022-12-29T11:51:00.147Z,9.33
2022-12-29T11:53:37.334Z,4.63
2022-12-29T11:56:09.267Z,4.20
2022-12-29T11:58:39.005Z,7.70
2022-12-29T12:01:24.264Z,5.27
2022-12-29T12:04:02.338Z,4.53
2022-12-29T12:06:32.919Z,6.43
2022-12-29T12:09:06.941Z,5.73
2022-12-29T12:11:38.862Z,7.27
2022-12-29T12:14:13.763Z,7.13
2022-12-29T12:17:05.875Z,6.23
2022-12-29T12:19:41.352Z,4.40
2022-12-29T12:22:22.671Z,5.97
2022-12-29T12:25:13.715Z,8.60
2022-12-29T12:28:08.257Z,5.23
2022-12-29T12:30:41.658Z,5.40
2022-12-29T12:33:39.772Z,6.13
2022-12-29T12:36:12.011Z,5.10
2022-12-29T12:38:56.211Z,7.03
2022-12-29T12:41:28.624Z,6.13
2022-12-29T12:44:13.174Z,4.67
2022-12-29T12:47:05.688Z,7.50
2022-12-29T12:49:49.718Z,5.20
2022-12-29T12:52:47.002Z,5.30
2022-12-29T12:55:48.292Z,5.43
2022-12-29T12:58:27.952Z,5.10
2022-12-29T13:01:12.935Z,5.50
2022-12-29T13:04:03.812Z,5.43
2022-12-29T13:06:50.322Z,6.57
2022-12-29T13:09:38.452Z,3.83
2022-12-29T13:12:23.266Z,4.83
2022-12-29T13:15:05.861Z,3.27
2022-12-29T13:17:46.454Z,5.43
2022-12-29T13:20:30.351Z,5.47
2022-12-29T13:23:21.281Z,3.67
2022-12-29T13:26:05.165Z,2.43
2022-12-29T13:28:53.027Z,3.10
2022-12-29T13:31:31.943Z,4.17
2022-12-29T13:34:02.036Z,5.90
2022-12-29T13:36:38.032Z,3.93
2022-12-29T13:39:21.238Z,6.20
2022-12-29T13:41:55.325Z,4.80
2022-12-29T13:44:39.724Z,5.27
2022-12-29T13:47:21.791Z,4.27
2022-12-29T13:49:49.338Z,6.07
2022-12-29T13:52:30.017Z,5.13
2022-12-29T13:55:21.533Z,4.20
2022-12-29T13:58:04.751Z,4.53
2022-12-29T14:00:44.174Z,3.87
2022-12-29T14:03:44.264Z,4.90
2022-12-29T14:06:26.001Z,5.37
2022-12-29T14:08:55.483Z,4.83
2022-12-29T14:11:29.640Z,5.80
2022-12-29T14:13:56.939Z,4.90
2022-12-29T14:16:29.687Z,5.00
2022-12-29T14:19:04.409Z,6.07
2022-12-29T14:21:32.024Z,4.63
2022-12-29T14:24:27.760Z,4.70
2022-12-29T14:26:54.237Z,6.73
2022-12-29T14:29:26.597Z,5.57
2022-12-29T14:31:53.756Z,3.83
2022-12-29T14:34:23.310Z,5.40
2022-12-29T14:37:03.215Z,5.33
2022-12-29T14:39:37.514Z,6.87
2022-12-29T14:42:09.971Z,5.07
2022-12-29T14:45:03.927Z,4.07
2022-12-29T14:47:42.889Z,9.70
2022-12-29T14:50:12.047Z,6.33
2022-12-29T14:52:49.113Z,6.83
2022-12-29T14:55:18.255Z,7.07
2022-12-29T14:57:49.541Z,4.60
2022-12-29T15:00:28.884Z,7.00
2022-12-29T15:03:17.984Z,5.63
2022-12-29T15:05:56.946Z,6.40
2022-12-29T15:08:27.038Z,8.07
2022-12-29T15:10:58.432Z,9.13
2022-12-29T15:13:34.033Z,4.67
2022-12-29T15:16:00.550Z,4.77
2022-12-29T15:18:31.009Z,7.00
2022-12-29T15:21:06.138Z,7.60
2022-12-29T15:23:34.778Z,6.60
2022-12-29T15:26:05.675Z,5.00
2022-12-29T15:28:40.836Z,7.40
2022-12-29T15:31:13.760Z,4.23
2022-12-29T15:33:42.792Z,4.67
2022-12-29T15:36:21.747Z,6.43
2022-12-29T15:38:49.348Z,7.40
2022-12-29T15:41:21.715Z,8.50
2022-12-29T15:44:03.057Z,4.20
2022-12-29T15:46:31.785Z,6.17
2022-12-29T15:48:58.483Z,8.17
2022-12-29T15:51:32.032Z,6.00
2022-12-29T15:53:58.998Z,5.50
2022-12-29T15:56:29.880Z,6.87
2022-12-29T15:58:56.537Z,6.77
2022-12-29T16:01:36.971Z,6.57
2022-12-29T16:04:10.282Z,10.40
2022-12-29T16:06:39.330Z,5.73
2022-12-29T16:09:17.541Z,8.73
2022-12-29T16:11:57.162Z,9.17
2022-12-29T16:14:41.240Z,7.10
2022-12-29T16:17:14.232Z,7.77
2022-12-29T16:19:42.940Z,6.37
2022-12-29T16:22:39.612Z,6.83
2022-12-29T16:25:20.522Z,7.50
2022-12-29T16:27:47.102Z,6.63
2022-12-29T16:30:24.285Z,7.23
2022-12-29T16:32:59.683Z,5.27
2022-12-29T16:35:27.965Z,7.40
2022-12-29T16:38:23.703Z,9.27
2022-12-29T16:40:56.961Z,6.40
2022-12-29T16:43:32.645Z,7.30
2022-12-29T16:45:59.079Z,9.53
2022-12-29T16:48:31.524Z,10.07
2022-12-29T16:51:12.928Z,8.87
2022-12-29T16:53:41.534Z,8.23
2022-12-29T16:56:27.691Z,8.93
2022-12-29T16:59:29.093Z,9.53
2022-12-29T17:01:57.993Z,11.67
2022-12-29T17:04:24.506Z,7.80
2022-12-29T17:06:50.905Z,10.20
2022-12-29T17:09:22.959Z,7.20
2022-12-29T17:12:00.368Z,6.57
2022-12-29T17:14:39.847Z,4.77
2022-12-29T17:17:18.153Z,5.43
2022-12-29T17:19:59.665Z,7.53
2022-12-29T17:22:28.467Z,7.50
2022-12-29T17:24:57.846Z,7.60
2022-12-29T17:27:29.703Z,8.33
2022-12-29T17:29:59.891Z,7.60
2022-12-29T17:32:26.921Z,6.20
2022-12-29T17:34:53.378Z,5.47
2022-12-29T17:37:29.314Z,7.57
2022-12-29T17:39:55.714Z,9.83
2022-12-29T17:42:22.144Z,7.77
2022-12-29T17:44:48.563Z,8.27
2022-12-29T17:47:15.820Z,8.50
2022-12-29T17:49:46.400Z,6.87
2022-12-29T17:52:14.359Z,6.57
2022-12-29T17:54:53.872Z,7.47
2022-12-29T17:57:21.167Z,11.70
2022-12-29T17:59:48.061Z,9.30
2022-12-29T18:02:25.299Z,11.43
2022-12-29T18:04:52.395Z,10.17
2022-12-29T18:07:18.909Z,9.07
2022-12-29T18:09:45.859Z,7.83
2022-12-29T18:12:37.482Z,8.37
2022-12-29T18:15:04.755Z,7.57
2022-12-29T18:17:31.219Z,6.97
2022-12-29T18:19:57.679Z,5.53
2022-12-29T18:22:25.652Z,5.90
2022-12-29T18:24:52.155Z,3.70
2022-12-29T18:27:19.437Z,4.07
2022-12-29T18:29:46.842Z,6.13
2022-12-29T18:32:14.466Z,4.67
2022-12-29T18:34:41.865Z,2.93
2022-12-29T18:37:09.290Z,3.63
2022-12-29T18:39:37.055Z,3.97
2022-12-29T18:42:07.318Z,4.73
2022-12-29T18:44:34.629Z,8.63
2022-12-29T18:47:01.282Z,2.67
2022-12-29T18:49:28.104Z,4.53
2022-12-29T18:51:54.612Z,2.97
2022-12-29T18:54:32.918Z,4.97
2022-12-29T18:56:59.584Z,8.83
2022-12-29T18:59:26.063Z,8.17
2022-12-29T19:01:53.463Z,6.83
2022-12-29T19:04:19.879Z,7.97
2022-12-29T19:06:46.526Z,8.27
2022-12-29T19:09:14.014Z,7.20
2022-12-29T19:11:40.714Z,6.90
2022-12-29T19:14:14.411Z,7.73
2022-12-29T19:16:41.498Z,4.93
2022-12-29T19:19:13.697Z,6.43
2022-12-29T19:21:40.129Z,6.47
2022-12-29T19:24:06.811Z,5.43
2022-12-29T19:26:36.467Z,5.67
2022-12-29T19:29:05.075Z,5.93
2022-12-29T19:31:31.617Z,5.93
2022-12-29T19:33:58.907Z,5.53
2022-12-29T19:36:25.344Z,5.50
2022-12-29T19:38:52.220Z,5.90
2022-12-29T19:41:18.640Z,3.67
2022-12-29T19:43:45.308Z,6.03
2022-12-29T19:46:16.746Z,4.40
2022-12-29T19:48:43.350Z,5.40
2022-12-29T19:51:13.449Z,5.93
2022-12-29T19:53:39.855Z,6.97
2022-12-29T19:56:08.813Z,5.07
2022-12-29T19:58:41.531Z,5.43
2022-12-29T20:01:13.703Z,5.60
2022-12-29T20:03:40.438Z,13.90
2022-12-29T20:06:08.061Z,5.47
2022-12-29T20:08:35.585Z,4.27
2022-12-29T20:11:14.689Z,7.43
2022-12-29T20:13:42.595Z,4.13
2022-12-29T20:16:15.576Z,8.57
2022-12-29T20:18:42.736Z,7.60
2022-12-29T20:21:13.196Z,5.90
2022-12-29T20:23:40.638Z,8.17
2022-12-29T20:26:09.095Z,7.97
2022-12-29T20:28:35.608Z,6.77
2022-12-29T20:31:16.104Z,5.17
2022-12-29T20:33:43.298Z,2.77
2022-12-29T20:36:15.348Z,4.87
2022-12-29T20:38:43.191Z,5.37
2022-12-29T20:41:09.743Z,4.43
2022-12-29T20:43:36.172Z,4.40
2022-12-29T20:46:02.645Z,7.57
2022-12-29T20:48:30.253Z,4.83
2022-12-29T20:51:00.441Z,4.07
2022-12-29T20:53:28.907Z,6.13
2022-12-29T20:55:59.730Z,3.43
2022-12-29T20:58:26.260Z,5.77
2022-12-29T21:00:53.987Z,5.23
2022-12-29T21:03:20.770Z,4.73
2022-12-29T21:05:47.511Z,7.53
2022-12-29T21:08:14.010Z,7.33
2022-12-29T21:10:40.573Z,6.37
2022-12-29T21:13:06.967Z,5.90
2022-12-29T21:15:33.399Z,6.20
2022-12-29T21:17:59.863Z,8.37
2022-12-29T21:20:32.492Z,6.63
2022-12-29T21:23:00.754Z,6.30
2022-12-29T21:25:37.115Z,8.97
2022-12-29T21:28:08.634Z,8.40
2022-12-29T21:30:35.530Z,7.27
2022-12-29T21:33:02.554Z,8.07
2022-12-29T21:35:29.243Z,8.67
2022-12-29T21:37:55.785Z,9.20
2022-12-29T21:40:22.703Z,7.73
2022-12-29T21:42:49.530Z,6.60
2022-12-29T21:45:25.015Z,4.93
2022-12-29T21:48:16.831Z,10.20
2022-12-29T21:51:04.073Z,8.33
2022-12-29T21:53:39.458Z,10.57
2022-12-29T21:56:18.184Z,5.20
2022-12-29T21:59:10.064Z,6.80
2022-12-29T22:01:56.745Z,7.43
2022-12-29T22:04:43.681Z,8.23
2022-12-29T22:07:31.118Z,9.10
2022-12-29T22:10:16.545Z,6.77
2022-12-29T22:12:59.951Z,7.30
2022-12-29T22:15:28.889Z,7.73
2022-12-29T22:17:55.678Z,6.70
2022-12-29T22:20:25.893Z,15.07
2022-12-29T22:22:53.054Z,9.63
2022-12-29T22:25:19.807Z,9.27
2022-12-29T22:27:46.758Z,10.83
2022-12-29T22:30:13.960Z,10.10
2022-12-29T22:32:41.093Z,9.17
2022-12-29T22:35:08.665Z,8.87
2022-12-29T22:37:35.934Z,10.40
2022-12-29T22:40:03.216Z,7.30
2022-12-29T22:42:29.849Z,9.03
2022-12-29T22:44:56.413Z,12.43
2022-12-29T22:47:22.870Z,13.60
2022-12-29T22:49:49.404Z,10.43
2022-12-29T22:52:15.856Z,11.40
2022-12-29T22:54:42.245Z,11.40
2022-12-29T22:57:08.719Z,11.17
2022-12-29T22:59:35.198Z,13.33
2022-12-29T23:02:02.069Z,14.47
2022-12-29T23:05:02.395Z,11.67
2022-12-29T23:07:15.443Z,10.23
2022-12-29T23:09:42.163Z,13.10
2022-12-29T23:12:08.697Z,11.17
2022-12-29T23:14:35.105Z,15.47
2022-12-29T23:17:01.543Z,15.53
2022-12-29T23:19:27.981Z,12.73
2022-12-29T23:21:54.390Z,18.33
2022-12-29T23:24:20.895Z,13.20
2022-12-29T23:26:48.171Z,12.73
2022-12-29T23:29:18.729Z,11.53
2022-12-29T23:31:46.783Z,13.53
2022-12-29T23:34:15.518Z,13.90
2022-12-29T23:36:42.638Z,12.53
2022-12-29T23:39:19.746Z,13.77
2022-12-29T23:41:46.255Z,11.10
2022-12-29T23:44:12.807Z,12.70
2022-12-29T23:46:40.792Z,12.40
2022-12-29T23:49:08.768Z,10.37
2022-12-29T23:51:35.292Z,13.40
2022-12-29T23:54:02.040Z,14.17
2022-12-29T23:56:28.580Z,11.97
2022-12-29T23:58:55.194Z,13.10
